sensor_id;sensor_type;location;lat;lon;timestamp;P1;durP1;ratioP1;P2;durP2;ratioP2
27333;SDS011;14817;57.104;-2.094;2022-11-30T00:00:59;2.55;;;1.05;;
27333;SDS011;14817;57.104;-2.094;2022-11-30T00:03:35;3.05;;;1.70;;
27333;SDS011;14817;57.104;-2.094;2022-11-30T00:06:06;3.22;;;1.00;;
27333;SDS011;14817;57.104;-2.094;2022-11-30T00:08:34;5.00;;;1.58;;
27333;SDS011;14817;57.104;-2.094;2022-11-30T00:13:57;2.13;;;1.35;;
27333;SDS011;14817;57.104;-2.094;2022-11-30T00:16:24;3.58;;;1.50;;
27333;SDS011;14817;57.104;-2.094;2022-11-30T00:18:52;4.80;;;1.50;;
27333;SDS011;14817;57.104;-2.094;2022-11-30T00:21:19;6.22;;;1.85;;
27333;SDS011;14817;57.104;-2.094;2022-11-30T00:23:46;4.22;;;1.38;;
27333;SDS011;14817;57.104;-2.094;2022-11-30T00:26:14;4.63;;;1.40;;
27333;SDS011;14817;57.104;-2.094;2022-11-30T00:28:43;1.90;;;1.25;;
27333;SDS011;14817;57.104;-2.094;2022-11-30T00:31:12;4.95;;;1.55;;
27333;SDS011;14817;57.104;-2.094;2022-11-30T00:33:40;8.43;;;1.75;;
27333;SDS011;14817;57.104;-2.094;2022-11-30T00:36:10;6.40;;;1.52;;
27333;SDS011;14817;57.104;-2.094;2022-11-30T00:38:41;2.90;;;1.38;;
27333;SDS011;14817;57.104;-2.094;2022-11-30T00:41:08;5.57;;;2.17;;
27333;SDS011;14817;57.104;-2.094;2022-11-30T00:43:35;5.18;;;2.17;;
27333;SDS011;14817;57.104;-2.094;2022-11-30T00:46:02;4.47;;;1.65;;
27333;SDS011;14817;57.104;-2.094;2022-11-30T00:48:29;3.97;;;1.50;;
27333;SDS011;14817;57.104;-2.094;2022-11-30T00:50:56;5.55;;;1.75;;
27333;SDS011;14817;57.104;-2.094;2022-11-30T00:53:23;8.63;;;2.30;;
27333;SDS011;14817;57.104;-2.094;2022-11-30T00:55:49;4.68;;;1.75;;
27333;SDS011;14817;57.104;-2.094;2022-11-30T00:58:16;6.40;;;2.17;;
27333;SDS011;14817;57.104;-2.094;2022-11-30T01:00:43;9.27;;;2.65;;
27333;SDS011;14817;57.104;-2.094;2022-11-30T01:03:10;3.97;;;1.98;;
27333;SDS011;14817;57.104;-2.094;2022-11-30T01:05:37;5.68;;;2.38;;
27333;SDS011;14817;57.104;-2.094;2022-11-30T01:08:06;4.03;;;1.90;;
27333;SDS011;14817;57.104;-2.094;2022-11-30T01:10:35;7.35;;;2.08;;
27333;SDS011;14817;57.104;-2.094;2022-11-30T01:13:03;4.25;;;1.70;;
27333;SDS011;14817;57.104;-2.094;2022-11-30T01:15:34;9.23;;;1.58;;
27333;SDS011;14817;57.104;-2.094;2022-11-30T01:18:05;2.85;;;1.42;;
27333;SDS011;14817;57.104;-2.094;2022-11-30T01:20:32;2.90;;;1.55;;
27333;SDS011;14817;57.104;-2.094;2022-11-30T01:22:59;5.57;;;1.85;;
27333;SDS011;14817;57.104;-2.094;2022-11-30T01:25:26;3.42;;;1.80;;
27333;SDS011;14817;57.104;-2.094;2022-11-30T01:27:52;3.92;;;1.42;;
27333;SDS011;14817;57.104;-2.094;2022-11-30T01:30:19;3.92;;;1.58;;
27333;SDS011;14817;57.104;-2.094;2022-11-30T01:32:46;4.65;;;2.03;;
27333;SDS011;14817;57.104;-2.094;2022-11-30T01:35:13;6.20;;;1.85;;
27333;SDS011;14817;57.104;-2.094;2022-11-30T01:37:40;3.38;;;1.80;;
27333;SDS011;14817;57.104;-2.094;2022-11-30T01:40:07;7.45;;;2.38;;
27333;SDS011;14817;57.104;-2.094;2022-11-30T01:42:34;10.57;;;2.53;;
27333;SDS011;14817;57.104;-2.094;2022-11-30T01:45:03;8.65;;;2.42;;
27333;SDS011;14817;57.104;-2.094;2022-11-30T01:47:33;5.22;;;2.00;;
27333;SDS011;14817;57.104;-2.094;2022-11-30T01:50:05;7.47;;;2.45;;
27333;SDS011;14817;57.104;-2.094;2022-11-30T01:52:37;5.43;;;2.15;;
27333;SDS011;14817;57.104;-2.094;2022-11-30T01:57:46;5.13;;;2.03;;
27333;SDS011;14817;57.104;-2.094;2022-11-30T02:00:18;7.72;;;2.60;;
27333;SDS011;14817;57.104;-2.094;2022-11-30T02:02:47;7.95;;;2.13;;
27333;SDS011;14817;57.104;-2.094;2022-11-30T02:05:22;7.32;;;2.25;;
27333;SDS011;14817;57.104;-2.094;2022-11-30T02:07:52;7.35;;;2.42;;
27333;SDS011;14817;57.104;-2.094;2022-11-30T02:10:22;7.05;;;2.10;;
27333;SDS011;14817;57.104;-2.094;2022-11-30T02:15:35;7.10;;;2.65;;
27333;SDS011;14817;57.104;-2.094;2022-11-30T02:18:15;6.65;;;2.10;;
27333;SDS011;14817;57.104;-2.094;2022-11-30T02:23:50;5.43;;;2.08;;
27333;SDS011;14817;57.104;-2.094;2022-11-30T02:29:15;5.90;;;2.13;;
27333;SDS011;14817;57.104;-2.094;2022-11-30T02:34:37;10.38;;;3.17;;
27333;SDS011;14817;57.104;-2.094;2022-11-30T02:37:08;8.05;;;3.63;;
27333;SDS011;14817;57.104;-2.094;2022-11-30T02:39:36;5.30;;;2.33;;
27333;SDS011;14817;57.104;-2.094;2022-11-30T02:42:04;9.05;;;2.80;;
27333;SDS011;14817;57.104;-2.094;2022-11-30T02:44:36;4.88;;;2.10;;
27333;SDS011;14817;57.104;-2.094;2022-11-30T02:52:17;5.78;;;2.60;;
27333;SDS011;14817;57.104;-2.094;2022-11-30T02:54:47;4.80;;;2.33;;
27333;SDS011;14817;57.104;-2.094;2022-11-30T02:57:14;6.70;;;2.60;;
27333;SDS011;14817;57.104;-2.094;2022-11-30T02:59:41;8.10;;;2.78;;
27333;SDS011;14817;57.104;-2.094;2022-11-30T03:02:08;8.15;;;2.90;;
27333;SDS011;14817;57.104;-2.094;2022-11-30T03:04:35;6.13;;;2.13;;
27333;SDS011;14817;57.104;-2.094;2022-11-30T03:07:01;6.13;;;2.05;;
27333;SDS011;14817;57.104;-2.094;2022-11-30T03:09:28;8.73;;;3.47;;
27333;SDS011;14817;57.104;-2.094;2022-11-30T03:11:55;5.63;;;2.33;;
27333;SDS011;14817;57.104;-2.094;2022-11-30T03:14:22;6.32;;;2.20;;
27333;SDS011;14817;57.104;-2.094;2022-11-30T03:16:49;9.18;;;2.38;;
27333;SDS011;14817;57.104;-2.094;2022-11-30T03:19:15;7.15;;;2.22;;
27333;SDS011;14817;57.104;-2.094;2022-11-30T03:21:42;6.75;;;2.47;;
27333;SDS011;14817;57.104;-2.094;2022-11-30T03:24:09;6.68;;;2.45;;
27333;SDS011;14817;57.104;-2.094;2022-11-30T03:26:35;5.43;;;2.25;;
27333;SDS011;14817;57.104;-2.094;2022-11-30T03:29:02;9.68;;;2.78;;
27333;SDS011;14817;57.104;-2.094;2022-11-30T03:31:29;9.38;;;2.25;;
27333;SDS011;14817;57.104;-2.094;2022-11-30T03:33:56;7.53;;;2.30;;
27333;SDS011;14817;57.104;-2.094;2022-11-30T03:36:22;7.60;;;2.58;;
27333;SDS011;14817;57.104;-2.094;2022-11-30T03:38:49;7.68;;;2.13;;
27333;SDS011;14817;57.104;-2.094;2022-11-30T03:41:16;5.45;;;2.58;;
27333;SDS011;14817;57.104;-2.094;2022-11-30T03:43:43;8.85;;;2.60;;
27333;SDS011;14817;57.104;-2.094;2022-11-30T03:46:11;6.32;;;2.33;;
27333;SDS011;14817;57.104;-2.094;2022-11-30T03:48:38;5.70;;;2.50;;
27333;SDS011;14817;57.104;-2.094;2022-11-30T03:51:08;6.68;;;2.80;;
27333;SDS011;14817;57.104;-2.094;2022-11-30T03:56:19;13.45;;;4.43;;
27333;SDS011;14817;57.104;-2.094;2022-11-30T03:58:46;7.32;;;2.65;;
27333;SDS011;14817;57.104;-2.094;2022-11-30T04:01:14;6.38;;;3.13;;
27333;SDS011;14817;57.104;-2.094;2022-11-30T04:03:43;4.95;;;2.80;;
27333;SDS011;14817;57.104;-2.094;2022-11-30T04:06:10;7.03;;;2.92;;
27333;SDS011;14817;57.104;-2.094;2022-11-30T04:08:38;7.88;;;3.00;;
27333;SDS011;14817;57.104;-2.094;2022-11-30T04:11:05;7.45;;;3.03;;
27333;SDS011;14817;57.104;-2.094;2022-11-30T04:13:33;10.23;;;3.13;;
27333;SDS011;14817;57.104;-2.094;2022-11-30T04:16:01;8.63;;;3.40;;
27333;SDS011;14817;57.104;-2.094;2022-11-30T04:18:29;7.13;;;3.17;;
27333;SDS011;14817;57.104;-2.094;2022-11-30T04:20:58;7.40;;;3.25;;
27333;SDS011;14817;57.104;-2.094;2022-11-30T04:23:30;9.60;;;3.67;;
27333;SDS011;14817;57.104;-2.094;2022-11-30T04:26:01;12.07;;;4.28;;
27333;SDS011;14817;57.104;-2.094;2022-11-30T04:28:29;9.43;;;4.40;;
27333;SDS011;14817;57.104;-2.094;2022-11-30T04:30:56;10.32;;;3.95;;
27333;SDS011;14817;57.104;-2.094;2022-11-30T04:33:27;7.03;;;2.93;;
27333;SDS011;14817;57.104;-2.094;2022-11-30T04:35:54;8.43;;;3.15;;
27333;SDS011;14817;57.104;-2.094;2022-11-30T04:38:26;8.85;;;3.13;;
27333;SDS011;14817;57.104;-2.094;2022-11-30T04:40:54;8.57;;;3.40;;
27333;SDS011;14817;57.104;-2.094;2022-11-30T04:43:21;10.43;;;3.90;;
27333;SDS011;14817;57.104;-2.094;2022-11-30T04:45:48;13.68;;;4.47;;
27333;SDS011;14817;57.104;-2.094;2022-11-30T04:48:16;15.45;;;4.43;;
27333;SDS011;14817;57.104;-2.094;2022-11-30T04:50:44;15.85;;;6.47;;
27333;SDS011;14817;57.104;-2.094;2022-11-30T04:53:10;12.02;;;5.20;;
27333;SDS011;14817;57.104;-2.094;2022-11-30T04:55:37;14.00;;;5.35;;
27333;SDS011;14817;57.104;-2.094;2022-11-30T04:58:05;10.73;;;4.28;;
27333;SDS011;14817;57.104;-2.094;2022-11-30T05:00:32;7.40;;;3.70;;
27333;SDS011;14817;57.104;-2.094;2022-11-30T05:02:59;7.70;;;3.58;;
27333;SDS011;14817;57.104;-2.094;2022-11-30T05:05:26;10.13;;;3.47;;
27333;SDS011;14817;57.104;-2.094;2022-11-30T05:07:57;4.55;;;2.60;;
27333;SDS011;14817;57.104;-2.094;2022-11-30T05:10:26;5.97;;;3.00;;
27333;SDS011;14817;57.104;-2.094;2022-11-30T05:12:53;7.72;;;2.50;;
27333;SDS011;14817;57.104;-2.094;2022-11-30T05:15:20;9.50;;;2.78;;
27333;SDS011;14817;57.104;-2.094;2022-11-30T05:17:47;7.45;;;2.67;;
27333;SDS011;14817;57.104;-2.094;2022-11-30T05:20:14;16.50;;;3.30;;
27333;SDS011;14817;57.104;-2.094;2022-11-30T05:22:41;9.30;;;2.75;;
27333;SDS011;14817;57.104;-2.094;2022-11-30T05:25:08;9.20;;;2.38;;
27333;SDS011;14817;57.104;-2.094;2022-11-30T05:27:36;4.82;;;2.28;;
27333;SDS011;14817;57.104;-2.094;2022-11-30T05:30:05;8.20;;;2.33;;
27333;SDS011;14817;57.104;-2.094;2022-11-30T05:32:32;14.27;;;2.85;;
27333;SDS011;14817;57.104;-2.094;2022-11-30T05:34:59;5.78;;;2.35;;
27333;SDS011;14817;57.104;-2.094;2022-11-30T05:37:25;10.25;;;3.00;;
27333;SDS011;14817;57.104;-2.094;2022-11-30T05:39:52;11.38;;;2.53;;
27333;SDS011;14817;57.104;-2.094;2022-11-30T05:42:19;13.70;;;2.63;;
27333;SDS011;14817;57.104;-2.094;2022-11-30T05:44:46;8.30;;;2.15;;
27333;SDS011;14817;57.104;-2.094;2022-11-30T05:47:14;8.98;;;1.83;;
27333;SDS011;14817;57.104;-2.094;2022-11-30T05:49:41;5.57;;;2.03;;
27333;SDS011;14817;57.104;-2.094;2022-11-30T05:52:08;5.35;;;1.92;;
27333;SDS011;14817;57.104;-2.094;2022-11-30T05:54:34;7.50;;;2.75;;
27333;SDS011;14817;57.104;-2.094;2022-11-30T05:57:01;3.70;;;1.70;;
27333;SDS011;14817;57.104;-2.094;2022-11-30T05:59:28;5.50;;;2.40;;
27333;SDS011;14817;57.104;-2.094;2022-11-30T06:01:55;5.18;;;2.65;;
27333;SDS011;14817;57.104;-2.094;2022-11-30T06:04:22;7.50;;;3.85;;
27333;SDS011;14817;57.104;-2.094;2022-11-30T06:06:49;9.10;;;3.95;;
27333;SDS011;14817;57.104;-2.094;2022-11-30T06:09:17;8.40;;;3.85;;
27333;SDS011;14817;57.104;-2.094;2022-11-30T06:11:44;8.30;;;2.85;;
27333;SDS011;14817;57.104;-2.094;2022-11-30T06:14:10;6.85;;;2.60;;
27333;SDS011;14817;57.104;-2.094;2022-11-30T06:16:37;8.27;;;3.00;;
27333;SDS011;14817;57.104;-2.094;2022-11-30T06:19:05;12.43;;;3.88;;
27333;SDS011;14817;57.104;-2.094;2022-11-30T06:21:32;5.03;;;3.72;;
27333;SDS011;14817;57.104;-2.094;2022-11-30T06:23:59;8.57;;;3.33;;
27333;SDS011;14817;57.104;-2.094;2022-11-30T06:26:26;11.35;;;3.70;;
27333;SDS011;14817;57.104;-2.094;2022-11-30T06:28:52;7.55;;;2.90;;
27333;SDS011;14817;57.104;-2.094;2022-11-30T06:31:19;7.63;;;2.47;;
27333;SDS011;14817;57.104;-2.094;2022-11-30T06:33:46;8.75;;;3.60;;
27333;SDS011;14817;57.104;-2.094;2022-11-30T06:36:12;4.15;;;2.13;;
27333;SDS011;14817;57.104;-2.094;2022-11-30T06:38:39;6.15;;;2.78;;
27333;SDS011;14817;57.104;-2.094;2022-11-30T06:41:07;5.57;;;2.63;;
27333;SDS011;14817;57.104;-2.094;2022-11-30T06:43:36;10.70;;;3.08;;
27333;SDS011;14817;57.104;-2.094;2022-11-30T06:46:04;7.07;;;2.92;;
27333;SDS011;14817;57.104;-2.094;2022-11-30T06:48:32;8.68;;;2.88;;
27333;SDS011;14817;57.104;-2.094;2022-11-30T06:51:00;12.68;;;3.45;;
27333;SDS011;14817;57.104;-2.094;2022-11-30T06:53:29;12.18;;;3.00;;
27333;SDS011;14817;57.104;-2.094;2022-11-30T06:55:56;11.52;;;2.92;;
27333;SDS011;14817;57.104;-2.094;2022-11-30T06:58:23;7.70;;;2.78;;
27333;SDS011;14817;57.104;-2.094;2022-11-30T07:00:50;8.68;;;2.80;;
27333;SDS011;14817;57.104;-2.094;2022-11-30T07:03:17;10.68;;;2.85;;
27333;SDS011;14817;57.104;-2.094;2022-11-30T07:05:44;10.65;;;2.60;;
27333;SDS011;14817;57.104;-2.094;2022-11-30T07:08:12;19.60;;;8.00;;
27333;SDS011;14817;57.104;-2.094;2022-11-30T07:10:41;13.68;;;5.38;;
27333;SDS011;14817;57.104;-2.094;2022-11-30T07:13:11;14.90;;;5.65;;
27333;SDS011;14817;57.104;-2.094;2022-11-30T07:15:39;8.68;;;3.05;;
27333;SDS011;14817;57.104;-2.094;2022-11-30T07:18:07;7.25;;;2.85;;
27333;SDS011;14817;57.104;-2.094;2022-11-30T07:20:34;8.18;;;2.78;;
27333;SDS011;14817;57.104;-2.094;2022-11-30T07:23:02;8.85;;;2.65;;
27333;SDS011;14817;57.104;-2.094;2022-11-30T07:25:48;9.50;;;3.20;;
27333;SDS011;14817;57.104;-2.094;2022-11-30T07:28:44;5.28;;;2.35;;
27333;SDS011;14817;57.104;-2.094;2022-11-30T07:31:48;5.30;;;2.30;;
27333;SDS011;14817;57.104;-2.094;2022-11-30T07:34:05;7.43;;;2.50;;
27333;SDS011;14817;57.104;-2.094;2022-11-30T07:36:34;8.85;;;1.77;;
27333;SDS011;14817;57.104;-2.094;2022-11-30T07:39:02;6.22;;;1.88;;
27333;SDS011;14817;57.104;-2.094;2022-11-30T07:41:29;7.07;;;2.10;;
27333;SDS011;14817;57.104;-2.094;2022-11-30T07:43:58;5.70;;;2.17;;
27333;SDS011;14817;57.104;-2.094;2022-11-30T07:46:25;16.70;;;3.10;;
27333;SDS011;14817;57.104;-2.094;2022-11-30T07:48:52;21.92;;;8.07;;
27333;SDS011;14817;57.104;-2.094;2022-11-30T07:51:19;10.65;;;2.85;;
27333;SDS011;14817;57.104;-2.094;2022-11-30T07:53:47;7.65;;;2.45;;
27333;SDS011;14817;57.104;-2.094;2022-11-30T07:56:15;10.80;;;2.50;;
27333;SDS011;14817;57.104;-2.094;2022-11-30T07:58:43;10.73;;;2.53;;
27333;SDS011;14817;57.104;-2.094;2022-11-30T08:01:20;4.43;;;1.77;;
27333;SDS011;14817;57.104;-2.094;2022-11-30T08:03:48;29.80;;;11.50;;
27333;SDS011;14817;57.104;-2.094;2022-11-30T08:06:17;11.40;;;3.50;;
27333;SDS011;14817;57.104;-2.094;2022-11-30T08:08:46;9.07;;;2.72;;
27333;SDS011;14817;57.104;-2.094;2022-11-30T08:11:16;7.80;;;2.47;;
27333;SDS011;14817;57.104;-2.094;2022-11-30T08:13:44;9.35;;;2.47;;
27333;SDS011;14817;57.104;-2.094;2022-11-30T08:16:12;6.75;;;2.35;;
27333;SDS011;14817;57.104;-2.094;2022-11-30T08:18:41;10.75;;;2.25;;
27333;SDS011;14817;57.104;-2.094;2022-11-30T08:21:08;9.75;;;2.45;;
27333;SDS011;14817;57.104;-2.094;2022-11-30T08:23:37;6.55;;;2.30;;
27333;SDS011;14817;57.104;-2.094;2022-11-30T08:28:35;5.50;;;1.75;;
27333;SDS011;14817;57.104;-2.094;2022-11-30T08:31:05;8.80;;;2.47;;
27333;SDS011;14817;57.104;-2.094;2022-11-30T08:33:34;6.95;;;2.28;;
27333;SDS011;14817;57.104;-2.094;2022-11-30T08:38:35;6.55;;;2.10;;
27333;SDS011;14817;57.104;-2.094;2022-11-30T08:41:03;4.22;;;2.13;;
27333;SDS011;14817;57.104;-2.094;2022-11-30T08:43:31;7.55;;;2.40;;
27333;SDS011;14817;57.104;-2.094;2022-11-30T08:46:00;4.97;;;2.10;;
27333;SDS011;14817;57.104;-2.094;2022-11-30T08:48:46;7.68;;;2.70;;
27333;SDS011;14817;57.104;-2.094;2022-11-30T08:51:14;7.78;;;2.72;;
27333;SDS011;14817;57.104;-2.094;2022-11-30T08:53:42;12.23;;;4.05;;
27333;SDS011;14817;57.104;-2.094;2022-11-30T08:56:11;14.38;;;4.05;;
27333;SDS011;14817;57.104;-2.094;2022-11-30T08:58:40;12.43;;;3.63;;
27333;SDS011;14817;57.104;-2.094;2022-11-30T09:01:11;9.40;;;4.10;;
27333;SDS011;14817;57.104;-2.094;2022-11-30T09:03:42;7.28;;;3.15;;
27333;SDS011;14817;57.104;-2.094;2022-11-30T09:06:14;12.52;;;3.53;;
27333;SDS011;14817;57.104;-2.094;2022-11-30T09:08:44;8.95;;;3.33;;
27333;SDS011;14817;57.104;-2.094;2022-11-30T09:11:46;11.02;;;3.92;;
27333;SDS011;14817;57.104;-2.094;2022-11-30T09:14:07;9.93;;;4.05;;
27333;SDS011;14817;57.104;-2.094;2022-11-30T09:16:35;10.65;;;3.85;;
27333;SDS011;14817;57.104;-2.094;2022-11-30T09:19:02;10.55;;;4.57;;
27333;SDS011;14817;57.104;-2.094;2022-11-30T09:21:30;11.43;;;4.22;;
27333;SDS011;14817;57.104;-2.094;2022-11-30T09:23:57;14.85;;;5.22;;
27333;SDS011;14817;57.104;-2.094;2022-11-30T09:26:23;7.82;;;4.63;;
27333;SDS011;14817;57.104;-2.094;2022-11-30T09:28:51;14.48;;;4.55;;
27333;SDS011;14817;57.104;-2.094;2022-11-30T09:31:20;10.63;;;3.92;;
27333;SDS011;14817;57.104;-2.094;2022-11-30T09:33:49;13.45;;;5.32;;
27333;SDS011;14817;57.104;-2.094;2022-11-30T09:36:18;19.13;;;6.55;;
27333;SDS011;14817;57.104;-2.094;2022-11-30T09:38:47;10.07;;;4.93;;
27333;SDS011;14817;57.104;-2.094;2022-11-30T09:47:14;13.85;;;6.18;;
27333;SDS011;14817;57.104;-2.094;2022-11-30T09:49:45;14.15;;;5.43;;
27333;SDS011;14817;57.104;-2.094;2022-11-30T09:52:15;13.77;;;5.40;;
27333;SDS011;14817;57.104;-2.094;2022-11-30T09:55:04;8.90;;;4.47;;
27333;SDS011;14817;57.104;-2.094;2022-11-30T10:00:14;10.52;;;6.10;;
27333;SDS011;14817;57.104;-2.094;2022-11-30T10:02:43;14.07;;;6.37;;
27333;SDS011;14817;57.104;-2.094;2022-11-30T10:05:12;17.55;;;6.80;;
27333;SDS011;14817;57.104;-2.094;2022-11-30T10:07:43;9.45;;;5.40;;
27333;SDS011;14817;57.104;-2.094;2022-11-30T10:10:39;14.52;;;6.18;;
27333;SDS011;14817;57.104;-2.094;2022-11-30T10:24:34;16.40;;;5.40;;
27333;SDS011;14817;57.104;-2.094;2022-11-30T10:27:37;14.82;;;6.20;;
27333;SDS011;14817;57.104;-2.094;2022-11-30T10:30:20;14.65;;;6.75;;
27333;SDS011;14817;57.104;-2.094;2022-11-30T10:32:55;12.90;;;6.47;;
27333;SDS011;14817;57.104;-2.094;2022-11-30T10:38:01;15.90;;;5.82;;
27333;SDS011;14817;57.104;-2.094;2022-11-30T10:40:46;7.80;;;3.90;;
27333;SDS011;14817;57.104;-2.094;2022-11-30T10:43:47;9.80;;;3.70;;
27333;SDS011;14817;57.104;-2.094;2022-11-30T10:46:26;7.93;;;3.88;;
27333;SDS011;14817;57.104;-2.094;2022-11-30T10:48:57;10.13;;;3.88;;
27333;SDS011;14817;57.104;-2.094;2022-11-30T10:51:28;9.68;;;3.55;;
27333;SDS011;14817;57.104;-2.094;2022-11-30T10:54:00;11.30;;;3.95;;
27333;SDS011;14817;57.104;-2.094;2022-11-30T10:56:31;7.65;;;2.80;;
27333;SDS011;14817;57.104;-2.094;2022-11-30T10:58:58;8.70;;;3.80;;
27333;SDS011;14817;57.104;-2.094;2022-11-30T11:01:38;6.10;;;3.35;;
27333;SDS011;14817;57.104;-2.094;2022-11-30T11:04:07;9.00;;;3.85;;
27333;SDS011;14817;57.104;-2.094;2022-11-30T11:06:46;6.28;;;3.72;;
27333;SDS011;14817;57.104;-2.094;2022-11-30T11:12:20;8.40;;;3.75;;
27333;SDS011;14817;57.104;-2.094;2022-11-30T11:14:48;10.50;;;3.30;;
27333;SDS011;14817;57.104;-2.094;2022-11-30T11:17:36;8.50;;;3.80;;
27333;SDS011;14817;57.104;-2.094;2022-11-30T11:20:03;15.93;;;4.60;;
27333;SDS011;14817;57.104;-2.094;2022-11-30T11:22:54;8.55;;;3.30;;
27333;SDS011;14817;57.104;-2.094;2022-11-30T11:25:23;16.15;;;5.60;;
27333;SDS011;14817;57.104;-2.094;2022-11-30T11:28:00;9.00;;;3.47;;
27333;SDS011;14817;57.104;-2.094;2022-11-30T11:30:35;7.95;;;3.35;;
27333;SDS011;14817;57.104;-2.094;2022-11-30T11:35:40;10.00;;;3.55;;
27333;SDS011;14817;57.104;-2.094;2022-11-30T11:38:23;8.15;;;3.10;;
27333;SDS011;14817;57.104;-2.094;2022-11-30T11:41:38;6.85;;;2.55;;
27333;SDS011;14817;57.104;-2.094;2022-11-30T11:49:25;7.15;;;2.95;;
27333;SDS011;14817;57.104;-2.094;2022-11-30T11:52:03;5.45;;;2.65;;
27333;SDS011;14817;57.104;-2.094;2022-11-30T11:54:34;7.80;;;2.63;;
27333;SDS011;14817;57.104;-2.094;2022-11-30T11:57:11;9.77;;;3.97;;
27333;SDS011;14817;57.104;-2.094;2022-11-30T11:59:52;7.03;;;3.22;;
27333;SDS011;14817;57.104;-2.094;2022-11-30T12:02:31;8.88;;;3.97;;
27333;SDS011;14817;57.104;-2.094;2022-11-30T12:05:13;8.18;;;3.53;;
27333;SDS011;14817;57.104;-2.094;2022-11-30T12:07:56;14.70;;;4.85;;
27333;SDS011;14817;57.104;-2.094;2022-11-30T12:21:23;6.80;;;3.22;;
27333;SDS011;14817;57.104;-2.094;2022-11-30T12:26:54;8.10;;;3.00;;
27333;SDS011;14817;57.104;-2.094;2022-11-30T12:29:43;8.68;;;2.95;;
27333;SDS011;14817;57.104;-2.094;2022-11-30T12:32:24;9.23;;;3.70;;
27333;SDS011;14817;57.104;-2.094;2022-11-30T12:40:30;14.88;;;5.13;;
27333;SDS011;14817;57.104;-2.094;2022-11-30T12:45:44;10.82;;;5.57;;
27333;SDS011;14817;57.104;-2.094;2022-11-30T12:50:55;10.65;;;4.13;;
27333;SDS011;14817;57.104;-2.094;2022-11-30T12:56:50;10.80;;;5.18;;
27333;SDS011;14817;57.104;-2.094;2022-11-30T13:05:28;11.27;;;3.83;;
27333;SDS011;14817;57.104;-2.094;2022-11-30T13:08:11;9.02;;;4.20;;
27333;SDS011;14817;57.104;-2.094;2022-11-30T13:10:46;8.30;;;3.33;;
27333;SDS011;14817;57.104;-2.094;2022-11-30T13:13:18;12.32;;;4.68;;
27333;SDS011;14817;57.104;-2.094;2022-11-30T13:15:50;8.43;;;3.95;;
27333;SDS011;14817;57.104;-2.094;2022-11-30T13:18:19;10.30;;;4.28;;
27333;SDS011;14817;57.104;-2.094;2022-11-30T13:31:32;10.77;;;5.18;;
27333;SDS011;14817;57.104;-2.094;2022-11-30T13:34:15;9.07;;;4.45;;
27333;SDS011;14817;57.104;-2.094;2022-11-30T13:36:50;13.07;;;5.40;;
27333;SDS011;14817;57.104;-2.094;2022-11-30T13:39:26;11.60;;;5.10;;
27333;SDS011;14817;57.104;-2.094;2022-11-30T13:44:31;10.88;;;5.13;;
27333;SDS011;14817;57.104;-2.094;2022-11-30T13:47:25;16.95;;;5.45;;
27333;SDS011;14817;57.104;-2.094;2022-11-30T13:49:55;13.13;;;5.57;;
27333;SDS011;14817;57.104;-2.094;2022-11-30T13:58:15;10.20;;;4.22;;
27333;SDS011;14817;57.104;-2.094;2022-11-30T14:04:19;14.43;;;5.07;;
27333;SDS011;14817;57.104;-2.094;2022-11-30T14:06:50;8.45;;;4.45;;
27333;SDS011;14817;57.104;-2.094;2022-11-30T14:17:56;11.15;;;5.32;;
27333;SDS011;14817;57.104;-2.094;2022-11-30T14:20:25;8.88;;;5.20;;
27333;SDS011;14817;57.104;-2.094;2022-11-30T14:23:07;12.60;;;5.63;;
27333;SDS011;14817;57.104;-2.094;2022-11-30T14:25:37;10.85;;;6.10;;
27333;SDS011;14817;57.104;-2.094;2022-11-30T14:28:12;15.65;;;7.07;;
27333;SDS011;14817;57.104;-2.094;2022-11-30T14:30:43;17.35;;;8.65;;
27333;SDS011;14817;57.104;-2.094;2022-11-30T14:33:24;16.58;;;9.23;;
27333;SDS011;14817;57.104;-2.094;2022-11-30T14:36:01;15.07;;;8.93;;
27333;SDS011;14817;57.104;-2.094;2022-11-30T14:38:29;24.02;;;10.00;;
27333;SDS011;14817;57.104;-2.094;2022-11-30T14:40:56;14.95;;;8.38;;
27333;SDS011;14817;57.104;-2.094;2022-11-30T14:43:24;16.60;;;8.55;;
27333;SDS011;14817;57.104;-2.094;2022-11-30T14:45:58;15.18;;;8.57;;
27333;SDS011;14817;57.104;-2.094;2022-11-30T14:48:31;18.25;;;10.23;;
27333;SDS011;14817;57.104;-2.094;2022-11-30T14:51:00;19.23;;;9.38;;
27333;SDS011;14817;57.104;-2.094;2022-11-30T14:56:19;19.73;;;10.07;;
27333;SDS011;14817;57.104;-2.094;2022-11-30T14:59:02;16.77;;;10.25;;
27333;SDS011;14817;57.104;-2.094;2022-11-30T15:01:41;22.30;;;10.80;;
27333;SDS011;14817;57.104;-2.094;2022-11-30T15:04:09;16.73;;;10.48;;
27333;SDS011;14817;57.104;-2.094;2022-11-30T15:06:40;16.08;;;10.52;;
27333;SDS011;14817;57.104;-2.094;2022-11-30T15:09:17;19.85;;;9.77;;
27333;SDS011;14817;57.104;-2.094;2022-11-30T15:11:47;16.02;;;10.35;;
27333;SDS011;14817;57.104;-2.094;2022-11-30T15:14:16;22.05;;;12.00;;
27333;SDS011;14817;57.104;-2.094;2022-11-30T15:16:47;22.38;;;11.60;;
27333;SDS011;14817;57.104;-2.094;2022-11-30T15:19:28;15.45;;;10.30;;
27333;SDS011;14817;57.104;-2.094;2022-11-30T15:21:59;17.63;;;10.85;;
27333;SDS011;14817;57.104;-2.094;2022-11-30T15:24:26;20.25;;;10.65;;
27333;SDS011;14817;57.104;-2.094;2022-11-30T15:27:18;15.07;;;9.10;;
27333;SDS011;14817;57.104;-2.094;2022-11-30T15:29:58;16.58;;;8.70;;
27333;SDS011;14817;57.104;-2.094;2022-11-30T15:32:27;18.65;;;9.13;;
27333;SDS011;14817;57.104;-2.094;2022-11-30T15:34:58;22.27;;;11.32;;
27333;SDS011;14817;57.104;-2.094;2022-11-30T15:37:32;16.52;;;8.40;;
27333;SDS011;14817;57.104;-2.094;2022-11-30T15:40:06;21.00;;;10.77;;
27333;SDS011;14817;57.104;-2.094;2022-11-30T15:42:36;19.80;;;10.55;;
27333;SDS011;14817;57.104;-2.094;2022-11-30T15:47:50;17.30;;;9.73;;
27333;SDS011;14817;57.104;-2.094;2022-11-30T15:52:58;16.42;;;9.18;;
27333;SDS011;14817;57.104;-2.094;2022-11-30T15:55:38;19.55;;;10.43;;
27333;SDS011;14817;57.104;-2.094;2022-11-30T16:01:37;20.55;;;10.43;;
27333;SDS011;14817;57.104;-2.094;2022-11-30T16:03:57;22.38;;;10.02;;
27333;SDS011;14817;57.104;-2.094;2022-11-30T16:06:30;24.25;;;12.10;;
27333;SDS011;14817;57.104;-2.094;2022-11-30T16:09:23;21.63;;;11.50;;
27333;SDS011;14817;57.104;-2.094;2022-11-30T16:11:58;24.02;;;13.02;;
27333;SDS011;14817;57.104;-2.094;2022-11-30T16:14:27;21.08;;;11.13;;
27333;SDS011;14817;57.104;-2.094;2022-11-30T16:16:54;23.60;;;12.27;;
27333;SDS011;14817;57.104;-2.094;2022-11-30T16:19:21;21.10;;;10.90;;
27333;SDS011;14817;57.104;-2.094;2022-11-30T16:21:49;21.70;;;10.80;;
27333;SDS011;14817;57.104;-2.094;2022-11-30T16:24:16;25.08;;;12.80;;
27333;SDS011;14817;57.104;-2.094;2022-11-30T16:26:43;18.45;;;11.30;;
27333;SDS011;14817;57.104;-2.094;2022-11-30T16:29:18;20.90;;;10.18;;
27333;SDS011;14817;57.104;-2.094;2022-11-30T16:31:45;18.17;;;9.15;;
27333;SDS011;14817;57.104;-2.094;2022-11-30T16:34:12;20.20;;;12.32;;
27333;SDS011;14817;57.104;-2.094;2022-11-30T16:36:38;16.35;;;9.52;;
27333;SDS011;14817;57.104;-2.094;2022-11-30T16:39:05;16.15;;;10.40;;
27333;SDS011;14817;57.104;-2.094;2022-11-30T16:41:34;19.00;;;10.13;;
27333;SDS011;14817;57.104;-2.094;2022-11-30T16:44:01;17.25;;;8.73;;
27333;SDS011;14817;57.104;-2.094;2022-11-30T16:46:28;14.10;;;7.60;;
27333;SDS011;14817;57.104;-2.094;2022-11-30T16:48:56;23.02;;;10.85;;
27333;SDS011;14817;57.104;-2.094;2022-11-30T16:51:27;17.92;;;7.60;;
27333;SDS011;14817;57.104;-2.094;2022-11-30T16:53:56;15.05;;;7.90;;
27333;SDS011;14817;57.104;-2.094;2022-11-30T16:56:23;18.23;;;9.18;;
27333;SDS011;14817;57.104;-2.094;2022-11-30T16:58:50;16.30;;;8.55;;
27333;SDS011;14817;57.104;-2.094;2022-11-30T17:01:25;14.82;;;6.78;;
27333;SDS011;14817;57.104;-2.094;2022-11-30T17:04:02;10.13;;;6.15;;
27333;SDS011;14817;57.104;-2.094;2022-11-30T17:06:37;17.42;;;6.45;;
27333;SDS011;14817;57.104;-2.094;2022-11-30T17:09:04;11.05;;;6.57;;